sensor_id;sensor_type;location;lat;lon;timestamp;pressure;altitude;pressure_sealevel;temperature;humidity
68594;BME280;55563;52.416;13.548;2024-02-16T00:01:06;101245.19;;;10.52;100.00
68594;BME280;55563;52.416;13.548;2024-02-16T00:03:07;101243.91;;;10.54;100.00
68594;BME280;55563;52.416;13.548;2024-02-16T00:05:07;101248.31;;;10.48;100.00
68594;BME280;55563;52.416;13.548;2024-02-16T00:07:08;101250.44;;;10.52;100.00
68594;BME280;55563;52.416;13.548;2024-02-16T00:09:08;101237.78;;;10.48;100.00
68594;BME280;55563;52.416;13.548;2024-02-16T00:11:10;101241.16;;;10.44;100.00
68594;BME280;55563;52.416;13.548;2024-02-16T00:13:10;101236.94;;;10.43;100.00
68594;BME280;55563;52.416;13.548;2024-02-16T00:15:12;101235.81;;;10.39;100.00
68594;BME280;55563;52.416;13.548;2024-02-16T00:17:13;101235.97;;;10.32;100.00
68594;BME280;55563;52.416;13.548;2024-02-16T00:19:13;101234.22;;;10.38;100.00
68594;BME280;55563;52.416;13.548;2024-02-16T00:21:14;101239.59;;;10.26;100.00
68594;BME280;55563;52.416;13.548;2024-02-16T00:23:14;101227.72;;;10.24;100.00
68594;BME280;55563;52.416;13.548;2024-02-16T00:25:15;101240.25;;;10.17;100.00
68594;BME280;55563;52.416;13.548;2024-02-16T00:27:16;101231.06;;;10.19;100.00
68594;BME280;55563;52.416;13.548;2024-02-16T00:29:16;101243.06;;;10.15;100.00
68594;BME280;55563;52.416;13.548;2024-02-16T00:31:17;101237.94;;;10.20;100.00
68594;BME280;55563;52.416;13.548;2024-02-16T00:33:17;101235.59;;;10.24;100.00
68594;BME280;55563;52.416;13.548;2024-02-16T00:35:19;101234.00;;;10.23;100.00
68594;BME280;55563;52.416;13.548;2024-02-16T00:37:20;101232.38;;;10.17;100.00
68594;BME280;55563;52.416;13.548;2024-02-16T00:39:20;101238.38;;;10.17;100.00
68594;BME280;55563;52.416;13.548;2024-02-16T00:41:23;101231.69;;;10.10;100.00
68594;BME280;55563;52.416;13.548;2024-02-16T00:43:23;101231.91;;;10.08;100.00
68594;BME280;55563;52.416;13.548;2024-02-16T00:45:24;101230.34;;;10.07;100.00
68594;BME280;55563;52.416;13.548;2024-02-16T00:47:25;101235.59;;;10.07;100.00
68594;BME280;55563;52.416;13.548;2024-02-16T00:49:27;101231.75;;;9.98;100.00
68594;BME280;55563;52.416;13.548;2024-02-16T00:51:28;101223.66;;;9.99;100.00
68594;BME280;55563;52.416;13.548;2024-02-16T00:53:29;101223.41;;;10.01;100.00
68594;BME280;55563;52.416;13.548;2024-02-16T00:55:30;101213.53;;;10.08;100.00
68594;BME280;55563;52.416;13.548;2024-02-16T00:57:31;101217.44;;;10.05;100.00
68594;BME280;55563;52.416;13.548;2024-02-16T00:59:33;101216.09;;;10.03;100.00
68594;BME280;55563;52.416;13.548;2024-02-16T01:01:34;101208.69;;;10.00;100.00
68594;BME280;55563;52.416;13.548;2024-02-16T01:03:37;101217.91;;;10.02;100.00
68594;BME280;55563;52.416;13.548;2024-02-16T01:05:39;101216.00;;;9.98;100.00
68594;BME280;55563;52.416;13.548;2024-02-16T01:07:41;101214.25;;;10.03;100.00
68594;BME280;55563;52.416;13.548;2024-02-16T01:09:42;101210.28;;;10.01;100.00
68594;BME280;55563;52.416;13.548;2024-02-16T01:11:43;101205.03;;;10.01;100.00
68594;BME280;55563;52.416;13.548;2024-02-16T01:13:45;101207.59;;;9.96;100.00
68594;BME280;55563;52.416;13.548;2024-02-16T01:15:46;101212.75;;;9.91;100.00
68594;BME280;55563;52.416;13.548;2024-02-16T01:17:47;101206.72;;;9.90;100.00
68594;BME280;55563;52.416;13.548;2024-02-16T01:19:47;101211.16;;;9.90;100.00
68594;BME280;55563;52.416;13.548;2024-02-16T01:21:48;101210.69;;;9.76;100.00
68594;BME280;55563;52.416;13.548;2024-02-16T01:23:52;101202.59;;;9.78;100.00
68594;BME280;55563;52.416;13.548;2024-02-16T01:25:53;101206.63;;;9.85;100.00
68594;BME280;55563;52.416;13.548;2024-02-16T01:27:54;101202.75;;;9.88;100.00
68594;BME280;55563;52.416;13.548;2024-02-16T01:29:55;101207.66;;;9.84;100.00
68594;BME280;55563;52.416;13.548;2024-02-16T01:31:56;101203.44;;;9.83;100.00
68594;BME280;55563;52.416;13.548;2024-02-16T01:33:56;101205.84;;;9.85;100.00
68594;BME280;55563;52.416;13.548;2024-02-16T01:35:57;101205.38;;;9.88;100.00
68594;BME280;55563;52.416;13.548;2024-02-16T01:37:57;101199.31;;;9.87;100.00
68594;BME280;55563;52.416;13.548;2024-02-16T01:39:58;101195.66;;;9.72;100.00
68594;BME280;55563;52.416;13.548;2024-02-16T01:41:59;101206.56;;;9.63;100.00
68594;BME280;55563;52.416;13.548;2024-02-16T01:44:00;101206.06;;;9.67;100.00
68594;BME280;55563;52.416;13.548;2024-02-16T01:46:01;101204.03;;;9.69;100.00
68594;BME280;55563;52.416;13.548;2024-02-16T01:48:02;101205.94;;;9.73;100.00
68594;BME280;55563;52.416;13.548;2024-02-16T01:50:03;101200.69;;;9.73;100.00
68594;BME280;55563;52.416;13.548;2024-02-16T01:52:04;101200.69;;;9.73;100.00
68594;BME280;55563;52.416;13.548;2024-02-16T01:54:04;101204.25;;;9.67;100.00
68594;BME280;55563;52.416;13.548;2024-02-16T01:56:05;101198.28;;;9.72;100.00
68594;BME280;55563;52.416;13.548;2024-02-16T01:58:07;101199.09;;;9.72;100.00
68594;BME280;55563;52.416;13.548;2024-02-16T02:00:08;101192.47;;;9.70;100.00
68594;BME280;55563;52.416;13.548;2024-02-16T02:02:09;101186.03;;;9.60;100.00
68594;BME280;55563;52.416;13.548;2024-02-16T02:04:10;101180.16;;;9.53;100.00
68594;BME280;55563;52.416;13.548;2024-02-16T02:06:10;101183.78;;;9.52;100.00
68594;BME280;55563;52.416;13.548;2024-02-16T02:08:12;101190.16;;;9.56;100.00
68594;BME280;55563;52.416;13.548;2024-02-16T02:10:13;101181.09;;;9.47;100.00
68594;BME280;55563;52.416;13.548;2024-02-16T02:12:13;101171.63;;;9.46;100.00
68594;BME280;55563;52.416;13.548;2024-02-16T02:14:14;101172.41;;;9.47;100.00
68594;BME280;55563;52.416;13.548;2024-02-16T02:16:15;101174.88;;;9.37;100.00
68594;BME280;55563;52.416;13.548;2024-02-16T02:18:16;101168.91;;;9.41;100.00
68594;BME280;55563;52.416;13.548;2024-02-16T02:20:16;101169.38;;;9.55;100.00
68594;BME280;55563;52.416;13.548;2024-02-16T02:22:18;101161.53;;;9.38;100.00
68594;BME280;55563;52.416;13.548;2024-02-16T02:24:20;101161.84;;;9.42;100.00
68594;BME280;55563;52.416;13.548;2024-02-16T02:26:21;101173.03;;;9.37;100.00
68594;BME280;55563;52.416;13.548;2024-02-16T02:28:22;101166.28;;;9.41;100.00
68594;BME280;55563;52.416;13.548;2024-02-16T02:30:24;101160.81;;;9.43;100.00
68594;BME280;55563;52.416;13.548;2024-02-16T02:32:24;101158.81;;;9.33;100.00
68594;BME280;55563;52.416;13.548;2024-02-16T02:34:25;101154.59;;;9.32;100.00
68594;BME280;55563;52.416;13.548;2024-02-16T02:36:26;101154.59;;;9.32;100.00
68594;BME280;55563;52.416;13.548;2024-02-16T02:38:26;101149.78;;;9.12;100.00
68594;BME280;55563;52.416;13.548;2024-02-16T02:40:27;101149.25;;;9.27;100.00
68594;BME280;55563;52.416;13.548;2024-02-16T02:42:28;101140.59;;;9.27;100.00
68594;BME280;55563;52.416;13.548;2024-02-16T02:44:28;101147.22;;;9.29;100.00
68594;BME280;55563;52.416;13.548;2024-02-16T02:46:31;101140.94;;;9.30;100.00
68594;BME280;55563;52.416;13.548;2024-02-16T02:48:32;101137.44;;;9.25;100.00
68594;BME280;55563;52.416;13.548;2024-02-16T02:50:32;101134.22;;;9.23;100.00
68594;BME280;55563;52.416;13.548;2024-02-16T02:52:33;101134.81;;;9.25;100.00
68594;BME280;55563;52.416;13.548;2024-02-16T02:54:34;101127.34;;;9.33;100.00
68594;BME280;55563;52.416;13.548;2024-02-16T02:56:34;101125.25;;;9.35;100.00
68594;BME280;55563;52.416;13.548;2024-02-16T02:58:35;101120.56;;;9.37;100.00
68594;BME280;55563;52.416;13.548;2024-02-16T03:00:36;101117.25;;;9.25;100.00
68594;BME280;55563;52.416;13.548;2024-02-16T03:02:37;101109.69;;;9.29;100.00
68594;BME280;55563;52.416;13.548;2024-02-16T03:04:39;101118.28;;;9.24;100.00
68594;BME280;55563;52.416;13.548;2024-02-16T03:06:39;101117.69;;;9.22;100.00
68594;BME280;55563;52.416;13.548;2024-02-16T03:08:40;101118.09;;;9.31;100.00
68594;BME280;55563;52.416;13.548;2024-02-16T03:10:41;101118.09;;;9.31;100.00
68594;BME280;55563;52.416;13.548;2024-02-16T03:12:41;101112.53;;;9.27;100.00
68594;BME280;55563;52.416;13.548;2024-02-16T03:14:42;101110.66;;;9.39;100.00
68594;BME280;55563;52.416;13.548;2024-02-16T03:16:42;101112.09;;;9.30;100.00
68594;BME280;55563;52.416;13.548;2024-02-16T03:18:43;101103.00;;;9.38;100.00
68594;BME280;55563;52.416;13.548;2024-02-16T03:20:45;101110.88;;;9.38;100.00
68594;BME280;55563;52.416;13.548;2024-02-16T03:22:48;101108.25;;;9.38;100.00
68594;BME280;55563;52.416;13.548;2024-02-16T03:24:49;101116.13;;;9.38;100.00
68594;BME280;55563;52.416;13.548;2024-02-16T03:26:49;101114.84;;;9.40;100.00
68594;BME280;55563;52.416;13.548;2024-02-16T03:28:50;101117.16;;;9.37;100.00
68594;BME280;55563;52.416;13.548;2024-02-16T03:30:51;101119.84;;;9.42;100.00
68594;BME280;55563;52.416;13.548;2024-02-16T03:32:51;101114.06;;;9.40;100.00
68594;BME280;55563;52.416;13.548;2024-02-16T03:34:52;101123.91;;;9.33;100.00
68594;BME280;55563;52.416;13.548;2024-02-16T03:36:53;101116.53;;;9.30;100.00
68594;BME280;55563;52.416;13.548;2024-02-16T03:38:54;101117.94;;;9.37;100.00
68594;BME280;55563;52.416;13.548;2024-02-16T03:40:55;101123.28;;;9.42;100.00
68594;BME280;55563;52.416;13.548;2024-02-16T03:42:56;101121.06;;;9.34;100.00
68594;BME280;55563;52.416;13.548;2024-02-16T03:44:57;101116.34;;;9.36;100.00
68594;BME280;55563;52.416;13.548;2024-02-16T03:46:58;101104.84;;;9.37;100.00
68594;BME280;55563;52.416;13.548;2024-02-16T03:48:59;101102.63;;;9.29;100.00
68594;BME280;55563;52.416;13.548;2024-02-16T03:50:59;101099.28;;;9.34;100.00
68594;BME280;55563;52.416;13.548;2024-02-16T03:53:00;101093.53;;;9.37;100.00
68594;BME280;55563;52.416;13.548;2024-02-16T03:55:01;101090.91;;;9.37;100.00
68594;BME280;55563;52.416;13.548;2024-02-16T03:57:01;101085.13;;;9.35;100.00
68594;BME280;55563;52.416;13.548;2024-02-16T03:59:04;101090.53;;;9.28;100.00
68594;BME280;55563;52.416;13.548;2024-02-16T04:01:05;101093.47;;;9.32;100.00
68594;BME280;55563;52.416;13.548;2024-02-16T04:03:07;101091.63;;;9.32;100.00
68594;BME280;55563;52.416;13.548;2024-02-16T04:05:08;101090.84;;;9.32;100.00
68594;BME280;55563;52.416;13.548;2024-02-16T04:07:08;101090.03;;;9.31;100.00
68594;BME280;55563;52.416;13.548;2024-02-16T04:09:09;101092.66;;;9.31;100.00
68594;BME280;55563;52.416;13.548;2024-02-16T04:11:11;101091.31;;;9.29;100.00
68594;BME280;55563;52.416;13.548;2024-02-16T04:13:13;101090.53;;;9.28;100.00
68594;BME280;55563;52.416;13.548;2024-02-16T04:15:14;101084.47;;;9.28;100.00
68594;BME280;55563;52.416;13.548;2024-02-16T04:17:14;101082.66;;;9.28;100.00
68594;BME280;55563;52.416;13.548;2024-02-16T04:19:15;101085.19;;;9.23;100.00
68594;BME280;55563;52.416;13.548;2024-02-16T04:21:15;101086.00;;;9.24;100.00
68594;BME280;55563;52.416;13.548;2024-02-16T04:23:17;101080.19;;;9.22;100.00
68594;BME280;55563;52.416;13.548;2024-02-16T04:25:18;101077.03;;;9.19;100.00
68594;BME280;55563;52.416;13.548;2024-02-16T04:27:18;101073.13;;;9.22;100.00
68594;BME280;55563;52.416;13.548;2024-02-16T04:29:19;101084.97;;;9.25;100.00
68594;BME280;55563;52.416;13.548;2024-02-16T04:31:20;101075.28;;;9.25;100.00
68594;BME280;55563;52.416;13.548;2024-02-16T04:33:20;101072.97;;;9.29;100.00
68594;BME280;55563;52.416;13.548;2024-02-16T04:35:21;101072.75;;;9.30;100.00
68594;BME280;55563;52.416;13.548;2024-02-16T04:37:23;101064.06;;;9.30;100.00
68594;BME280;55563;52.416;13.548;2024-02-16T04:39:23;101067.72;;;9.29;100.00
68594;BME280;55563;52.416;13.548;2024-02-16T04:41:24;101063.19;;;9.24;100.00
68594;BME280;55563;52.416;13.548;2024-02-16T04:43:25;101065.25;;;9.22;100.00
68594;BME280;55563;52.416;13.548;2024-02-16T04:45:26;101060.25;;;9.21;100.00
68594;BME280;55563;52.416;13.548;2024-02-16T04:47:27;101062.41;;;9.24;100.00
68594;BME280;55563;52.416;13.548;2024-02-16T04:49:28;101072.66;;;9.25;100.00
68594;BME280;55563;52.416;13.548;2024-02-16T04:51:28;101075.66;;;9.17;100.00
68594;BME280;55563;52.416;13.548;2024-02-16T04:53:29;101078.03;;;9.18;100.00
68594;BME280;55563;52.416;13.548;2024-02-16T04:55:30;101070.41;;;9.17;100.00
68594;BME280;55563;52.416;13.548;2024-02-16T04:57:33;101078.63;;;9.21;100.00
68594;BME280;55563;52.416;13.548;2024-02-16T04:59:33;101064.94;;;9.18;100.00
68594;BME280;55563;52.416;13.548;2024-02-16T05:01:34;101066.03;;;9.23;100.00
68594;BME280;55563;52.416;13.548;2024-02-16T05:03:35;101058.16;;;9.23;100.00
68594;BME280;55563;52.416;13.548;2024-02-16T05:05:35;101056.97;;;9.13;100.00
68594;BME280;55563;52.416;13.548;2024-02-16T05:07:36;101058.81;;;9.30;100.00
68594;BME280;55563;52.416;13.548;2024-02-16T05:09:37;101054.59;;;9.29;100.00
68594;BME280;55563;52.416;13.548;2024-02-16T05:11:37;101053.88;;;9.33;100.00
68594;BME280;55563;52.416;13.548;2024-02-16T05:13:38;101045.56;;;9.19;100.00
68594;BME280;55563;52.416;13.548;2024-02-16T05:15:39;101050.47;;;9.33;100.00
68594;BME280;55563;52.416;13.548;2024-02-16T05:17:40;101047.53;;;9.29;100.00
68594;BME280;55563;52.416;13.548;2024-02-16T05:19:41;101042.03;;;9.31;100.00
68594;BME280;55563;52.416;13.548;2024-02-16T05:21:42;101047.13;;;9.37;100.00
68594;BME280;55563;52.416;13.548;2024-02-16T05:23:42;101042.59;;;9.33;100.00
68594;BME280;55563;52.416;13.548;2024-02-16T05:25:43;101043.16;;;9.35;100.00
68594;BME280;55563;52.416;13.548;2024-02-16T05:27:44;101042.38;;;9.34;100.00
68594;BME280;55563;52.416;13.548;2024-02-16T05:29:46;101050.22;;;9.34;100.00
68594;BME280;55563;52.416;13.548;2024-02-16T05:31:51;101049.34;;;9.29;100.00
68594;BME280;55563;52.416;13.548;2024-02-16T05:33:51;101045.00;;;9.34;100.00
68594;BME280;55563;52.416;13.548;2024-02-16T05:35:52;101044.91;;;9.29;100.00
68594;BME280;55563;52.416;13.548;2024-02-16T05:37:55;101046.81;;;9.34;100.00
68594;BME280;55563;52.416;13.548;2024-02-16T05:39:56;101044.91;;;9.29;100.00
68594;BME280;55563;52.416;13.548;2024-02-16T05:42:08;101044.56;;;9.26;100.00
68594;BME280;55563;52.416;13.548;2024-02-16T05:44:09;101047.63;;;9.34;100.00
68594;BME280;55563;52.416;13.548;2024-02-16T05:46:17;101037.75;;;9.25;100.00
68594;BME280;55563;52.416;13.548;2024-02-16T05:48:19;101038.13;;;9.50;100.00
68594;BME280;55563;52.416;13.548;2024-02-16T05:50:21;101034.59;;;9.61;100.00
68594;BME280;55563;52.416;13.548;2024-02-16T05:52:22;101032.19;;;9.21;100.00
68594;BME280;55563;52.416;13.548;2024-02-16T05:54:23;101035.50;;;9.16;100.00
68594;BME280;55563;52.416;13.548;2024-02-16T05:56:24;101035.50;;;9.16;100.00
68594;BME280;55563;52.416;13.548;2024-02-16T05:58:25;101027.41;;;9.18;100.00
68594;BME280;55563;52.416;13.548;2024-02-16T06:00:26;101028.44;;;9.17;100.00
68594;BME280;55563;52.416;13.548;2024-02-16T06:02:27;101028.94;;;9.14;100.00
68594;BME280;55563;52.416;13.548;2024-02-16T06:04:28;101021.59;;;9.16;100.00
68594;BME280;55563;52.416;13.548;2024-02-16T06:06:29;101016.13;;;9.17;100.00
68594;BME280;55563;52.416;13.548;2024-02-16T06:08:29;101019.25;;;9.14;100.00
68594;BME280;55563;52.416;13.548;2024-02-16T06:10:30;101016.69;;;9.19;100.00
68594;BME280;55563;52.416;13.548;2024-02-16T06:12:31;101027.34;;;9.13;100.00
68594;BME280;55563;52.416;13.548;2024-02-16T06:14:33;101018.22;;;9.15;100.00
68594;BME280;55563;52.416;13.548;2024-02-16T06:16:33;101011.63;;;8.96;100.00
68594;BME280;55563;52.416;13.548;2024-02-16T06:18:35;101018.13;;;8.94;100.00
68594;BME280;55563;52.416;13.548;2024-02-16T06:20:36;101022.00;;;9.08;100.00
68594;BME280;55563;52.416;13.548;2024-02-16T06:22:37;101020.56;;;9.17;100.00
68594;BME280;55563;52.416;13.548;2024-02-16T06:24:38;101026.31;;;9.14;100.00
68594;BME280;55563;52.416;13.548;2024-02-16T06:26:38;101023.78;;;9.19;100.00
68594;BME280;55563;52.416;13.548;2024-02-16T06:28:39;101025.22;;;9.10;100.00
68594;BME280;55563;52.416;13.548;2024-02-16T06:30:39;101023.91;;;9.12;100.00
68594;BME280;55563;52.416;13.548;2024-02-16T06:32:40;101025.44;;;9.08;100.00
68594;BME280;55563;52.416;13.548;2024-02-16T06:34:41;101021.28;;;9.12;100.00
68594;BME280;55563;52.416;13.548;2024-02-16T06:36:42;101022.97;;;9.02;100.00
68594;BME280;55563;52.416;13.548;2024-02-16T06:38:42;101025.44;;;9.08;100.00
68594;BME280;55563;52.416;13.548;2024-02-16T06:40:43;101027.66;;;9.16;100.00
68594;BME280;55563;52.416;13.548;2024-02-16T06:42:43;101028.22;;;9.18;100.00
68594;BME280;55563;52.416;13.548;2024-02-16T06:44:44;101026.09;;;9.15;100.00
68594;BME280;55563;52.416;13.548;2024-02-16T06:46:45;101028.63;;;9.10;100.00
68594;BME280;55563;52.416;13.548;2024-02-16T06:48:45;101026.28;;;9.31;100.00
68594;BME280;55563;52.416;13.548;2024-02-16T06:50:46;101024.81;;;9.35;100.00
68594;BME280;55563;52.416;13.548;2024-02-16T06:52:47;101017.31;;;9.43;100.00
68594;BME280;55563;52.416;13.548;2024-02-16T06:54:47;101007.34;;;9.45;100.00
68594;BME280;55563;52.416;13.548;2024-02-16T06:56:49;101008.41;;;9.44;100.00
68594;BME280;55563;52.416;13.548;2024-02-16T06:58:51;101000.53;;;9.44;100.00
68594;BME280;55563;52.416;13.548;2024-02-16T07:00:52;101019.38;;;9.41;100.00
68594;BME280;55563;52.416;13.548;2024-02-16T07:02:52;101023.56;;;9.59;100.00
68594;BME280;55563;52.416;13.548;2024-02-16T07:04:53;101018.66;;;9.46;100.00
68594;BME280;55563;52.416;13.548;2024-02-16T07:06:54;101013.41;;;9.46;100.00
68594;BME280;55563;52.416;13.548;2024-02-16T07:08:54;101012.66;;;9.50;100.00
68594;BME280;55563;52.416;13.548;2024-02-16T07:10:55;101014.19;;;9.46;100.00
68594;BME280;55563;52.416;13.548;2024-02-16T07:12:56;101003.84;;;9.56;100.00
68594;BME280;55563;52.416;13.548;2024-02-16T07:14:57;101012.50;;;9.57;100.00
68594;BME280;55563;52.416;13.548;2024-02-16T07:16:57;101007.75;;;9.54;100.00
68594;BME280;55563;52.416;13.548;2024-02-16T07:18:58;101002.63;;;9.64;100.00
68594;BME280;55563;52.416;13.548;2024-02-16T07:20:59;101002.31;;;9.60;100.00
68594;BME280;55563;52.416;13.548;2024-02-16T07:22:59;101004.34;;;9.53;100.00
68594;BME280;55563;52.416;13.548;2024-02-16T07:25:01;101000.00;;;9.64;100.00
68594;BME280;55563;52.416;13.548;2024-02-16T07:27:02;101001.84;;;9.63;100.00
68594;BME280;55563;52.416;13.548;2024-02-16T07:29:02;100989.50;;;9.64;100.00
68594;BME280;55563;52.416;13.548;2024-02-16T07:31:03;100993.19;;;9.63;100.00
68594;BME280;55563;52.416;13.548;2024-02-16T07:33:05;100997.44;;;9.69;100.00
68594;BME280;55563;52.416;13.548;2024-02-16T07:35:07;101006.25;;;9.80;100.00
68594;BME280;55563;52.416;13.548;2024-02-16T07:37:10;101002.03;;;9.79;100.00
68594;BME280;55563;52.416;13.548;2024-02-16T07:39:11;100998.63;;;9.78;100.00
68594;BME280;55563;52.416;13.548;2024-02-16T07:41:12;101000.75;;;9.81;100.00
68594;BME280;55563;52.416;13.548;2024-02-16T07:43:13;101002.59;;;9.81;100.00
68594;BME280;55563;52.416;13.548;2024-02-16T07:45:14;100993.69;;;9.82;100.00
68594;BME280;55563;52.416;13.548;2024-02-16T07:47:14;101004.19;;;9.82;100.00
68594;BME280;55563;52.416;13.548;2024-02-16T07:49:16;101002.88;;;9.84;100.00
68594;BME280;55563;52.416;13.548;2024-02-16T07:51:16;100999.78;;;9.87;100.00
68594;BME280;55563;52.416;13.548;2024-02-16T07:53:17;101001.63;;;9.87;100.00
68594;BME280;55563;52.416;13.548;2024-02-16T07:55:18;100995.06;;;9.89;100.00
68594;BME280;55563;52.416;13.548;2024-02-16T07:57:18;101000.38;;;9.94;100.00
68594;BME280;55563;52.416;13.548;2024-02-16T07:59:19;100996.22;;;9.98;100.00
68594;BME280;55563;52.416;13.548;2024-02-16T08:01:19;101002.84;;;10.01;100.00
68594;BME280;55563;52.416;13.548;2024-02-16T08:03:20;100993.66;;;10.03;100.00
68594;BME280;55563;52.416;13.548;2024-02-16T08:05:21;100990.28;;;10.08;100.00
68594;BME280;55563;52.416;13.548;2024-02-16T08:07:22;100997.19;;;10.14;100.00
68594;BME280;55563;52.416;13.548;2024-02-16T08:09:23;100997.59;;;10.49;100.00
68594;BME280;55563;52.416;13.548;2024-02-16T08:11:24;100993.97;;;10.29;100.00
68594;BME280;55563;52.416;13.548;2024-02-16T08:13:24;100993.13;;;10.23;100.00
68594;BME280;55563;52.416;13.548;2024-02-16T08:15:25;100999.22;;;10.29;100.00
68594;BME280;55563;52.416;13.548;2024-02-16T08:17:26;100988.53;;;10.35;100.00
68594;BME280;55563;52.416;13.548;2024-02-16T08:19:32;100994.06;;;10.39;100.00
68594;BME280;55563;52.416;13.548;2024-02-16T08:21:34;101009.44;;;10.52;100.00
68594;BME280;55563;52.416;13.548;2024-02-16T08:23:35;101013.94;;;10.57;100.00
68594;BME280;55563;52.416;13.548;2024-02-16T08:25:35;101011.59;;;10.60;100.00
68594;BME280;55563;52.416;13.548;2024-02-16T08:27:36;101015.41;;;10.69;100.00
68594;BME280;55563;52.416;13.548;2024-02-16T08:29:38;101020.69;;;10.74;100.00
68594;BME280;55563;52.416;13.548;2024-02-16T08:31:39;101021.00;;;10.78;100.00
68594;BME280;55563;52.416;13.548;2024-02-16T08:33:39;101014.44;;;10.80;100.00
68594;BME280;55563;52.416;13.548;2024-02-16T08:35:40;101013.72;;;10.90;100.00
68594;BME280;55563;52.416;13.548;2024-02-16T08:37:41;101010.88;;;10.97;100.00
68594;BME280;55563;52.416;13.548;2024-02-16T08:39:41;101007.25;;;11.03;100.00
68594;BME280;55563;52.416;13.548;2024-02-16T08:41:42;101004.16;;;11.11;100.00
68594;BME280;55563;52.416;13.548;2024-02-16T08:43:44;101000.19;;;11.08;100.00
68594;BME280;55563;52.416;13.548;2024-02-16T08:45:45;101000.22;;;11.13;100.00
68594;BME280;55563;52.416;13.548;2024-02-16T08:47:45;100996.53;;;11.14;100.00
68594;BME280;55563;52.416;13.548;2024-02-16T08:49:46;100984.75;;;11.17;100.00
68594;BME280;55563;52.416;13.548;2024-02-16T08:51:47;100988.69;;;11.19;100.00
68594;BME280;55563;52.416;13.548;2024-02-16T08:53:48;100985.81;;;11.21;100.00
68594;BME280;55563;52.416;13.548;2024-02-16T08:55:49;100994.22;;;11.23;100.00
68594;BME280;55563;52.416;13.548;2024-02-16T08:57:49;100987.69;;;11.25;100.00
68594;BME280;55563;52.416;13.548;2024-02-16T08:59:50;100992.03;;;11.10;100.00
68594;BME280;55563;52.416;13.548;2024-02-16T09:01:51;100990.56;;;11.24;100.00
68594;BME280;55563;52.416;13.548;2024-02-16T09:03:51;100995.88;;;11.34;100.00
68594;BME280;55563;52.416;13.548;2024-02-16T09:05:54;101004.34;;;11.36;100.00
68594;BME280;55563;52.416;13.548;2024-02-16T09:07:55;101001.47;;;11.43;100.00
68594;BME280;55563;52.416;13.548;2024-02-16T09:09:55;100983.84;;;11.48;100.00
68594;BME280;55563;52.416;13.548;2024-02-16T09:11:57;100985.19;;;11.46;100.00
68594;BME280;55563;52.416;13.548;2024-02-16T09:13:58;100991.25;;;11.51;100.00
68594;BME280;55563;52.416;13.548;2024-02-16T09:15:59;100984.16;;;11.57;100.00
68594;BME280;55563;52.416;13.548;2024-02-16T09:18:00;100977.34;;;11.66;100.00
68594;BME280;55563;52.416;13.548;2024-02-16T09:20:00;100983.41;;;11.66;100.00
68594;BME280;55563;52.416;13.548;2024-02-16T09:22:03;100982.19;;;11.74;100.00
68594;BME280;55563;52.416;13.548;2024-02-16T09:24:06;100980.34;;;11.74;100.00
68594;BME280;55563;52.416;13.548;2024-02-16T09:26:10;100976.66;;;11.80;100.00
68594;BME280;55563;52.416;13.548;2024-02-16T09:28:11;100982.69;;;11.76;100.00
68594;BME280;55563;52.416;13.548;2024-02-16T09:30:12;100991.44;;;11.87;100.00
68594;BME280;55563;52.416;13.548;2024-02-16T09:32:13;100981.72;;;11.92;100.00
68594;BME280;55563;52.416;13.548;2024-02-16T09:34:14;100982.25;;;11.94;100.00
68594;BME280;55563;52.416;13.548;2024-02-16T09:36:14;100982.81;;;12.01;100.00
68594;BME280;55563;52.416;13.548;2024-02-16T09:38:15;100977.81;;;12.05;100.00
68594;BME280;55563;52.416;13.548;2024-02-16T09:40:15;100977.56;;;12.06;100.00
68594;BME280;55563;52.416;13.548;2024-02-16T09:42:18;100976.25;;;12.14;100.00
68594;BME280;55563;52.416;13.548;2024-02-16T09:44:20;100968.88;;;12.16;100.00
68594;BME280;55563;52.416;13.548;2024-02-16T09:46:23;100967.31;;;12.20;100.00
68594;BME280;55563;52.416;13.548;2024-02-16T09:48:25;100968.63;;;12.12;100.00
68594;BME280;55563;52.416;13.548;2024-02-16T09:50:27;100968.34;;;12.14;100.00
68594;BME280;55563;52.416;13.548;2024-02-16T09:52:28;100974.16;;;12.21;100.00
68594;BME280;55563;52.416;13.548;2024-02-16T09:54:32;100974.16;;;12.21;100.00
68594;BME280;55563;52.416;13.548;2024-02-16T09:56:34;100966.53;;;12.24;100.00
68594;BME280;55563;52.416;13.548;2024-02-16T09:58:35;100966.28;;;12.31;100.00
68594;BME280;55563;52.416;13.548;2024-02-16T10:00:36;100972.06;;;12.38;100.00
68594;BME280;55563;52.416;13.548;2024-02-16T10:02:42;100975.78;;;12.37;100.00
68594;BME280;55563;52.416;13.548;2024-02-16T10:04:43;100981.31;;;12.36;100.00
68594;BME280;55563;52.416;13.548;2024-02-16T10:06:47;100968.16;;;12.46;100.00
68594;BME280;55563;52.416;13.548;2024-02-16T10:08:51;100980.00;;;12.48;100.00
68594;BME280;55563;52.416;13.548;2024-02-16T10:11:03;100978.16;;;12.54;100.00
68594;BME280;55563;52.416;13.548;2024-02-16T10:13:05;100980.53;;;12.55;100.00
68594;BME280;55563;52.416;13.548;2024-02-16T10:15:06;100987.66;;;12.65;100.00
68594;BME280;55563;52.416;13.548;2024-02-16T10:17:07;100987.66;;;12.60;100.00
68594;BME280;55563;52.416;13.548;2024-02-16T10:19:09;100990.03;;;12.72;100.00
68594;BME280;55563;52.416;13.548;2024-02-16T10:21:11;100985.31;;;12.74;100.00